createdAt,value
2018-11-03T00:01:39.165Z,7.60
2018-11-03T00:04:12.776Z,13.60
2018-11-03T00:06:46.556Z,10.30
2018-11-03T00:09:20.451Z,7.07
2018-11-03T00:11:53.691Z,6.33
2018-11-03T00:14:26.549Z,6.90
2018-11-03T00:16:59.676Z,14.03
2018-11-03T00:19:32.741Z,10.80
2018-11-03T00:22:05.902Z,8.33
2018-11-03T00:24:39.721Z,8.80
2018-11-03T00:27:12.657Z,10.30
2018-11-03T00:29:45.664Z,9.87
2018-11-03T00:32:18.404Z,9.87
2018-11-03T00:34:51.556Z,6.10
2018-11-03T00:37:24.623Z,7.20
2018-11-03T00:39:58.555Z,5.80
2018-11-03T00:42:31.697Z,5.43
2018-11-03T00:45:04.798Z,9.37
2018-11-03T00:47:37.948Z,7.73
2018-11-03T00:50:12.517Z,11.87
2018-11-03T00:52:46.120Z,11.97
2018-11-03T00:55:19.290Z,7.70
2018-11-03T00:57:52.128Z,8.30
2018-11-03T01:00:25.398Z,9.23
2018-11-03T01:02:58.815Z,7.87
2018-11-03T01:05:32.044Z,8.40
2018-11-03T01:08:05.571Z,7.83
2018-11-03T01:10:38.777Z,8.80
2018-11-03T01:13:13.478Z,9.83
2018-11-03T01:15:46.395Z,6.70
2018-11-03T01:18:19.673Z,7.00
2018-11-03T01:20:53.240Z,12.23
2018-11-03T01:23:26.792Z,7.60
2018-11-03T01:25:59.853Z,4.50
2018-11-03T01:28:32.767Z,14.53
2018-11-03T01:31:05.825Z,6.53
2018-11-03T01:33:38.887Z,5.27
2018-11-03T01:36:11.951Z,8.80
2018-11-03T01:38:45.160Z,12.07
2018-11-03T01:41:18.506Z,12.70
2018-11-03T01:43:51.877Z,8.40
2018-11-03T01:46:25.255Z,7.17
2018-11-03T01:48:58.379Z,11.40
2018-11-03T01:51:31.673Z,8.23
2018-11-03T01:54:05.571Z,11.00
2018-11-03T01:56:38.719Z,7.70
2018-11-03T01:59:11.787Z,7.57
2018-11-03T02:01:44.784Z,8.93
2018-11-03T02:04:17.733Z,8.00
2018-11-03T02:06:51.964Z,10.60
2018-11-03T02:09:25.207Z,9.60
2018-11-03T02:11:58.214Z,13.60
2018-11-03T02:14:31.409Z,13.67
2018-11-03T02:17:04.726Z,10.53
2018-11-03T02:19:38.585Z,12.20
2018-11-03T02:22:12.368Z,10.47
2018-11-03T02:24:45.687Z,17.23
2018-11-03T02:27:19.303Z,14.27
2018-11-03T02:29:52.680Z,10.80
2018-11-03T02:32:26.037Z,9.17
2018-11-03T02:34:59.265Z,15.40
2018-11-03T02:37:32.402Z,22.47
2018-11-03T02:40:05.649Z,14.93
2018-11-03T02:42:39.559Z,16.30
2018-11-03T02:45:13.110Z,18.37
2018-11-03T02:47:46.477Z,12.00
2018-11-03T02:50:19.765Z,34.53
2018-11-03T02:52:52.432Z,38.57
2018-11-03T02:55:26.223Z,39.47
2018-11-03T02:57:59.791Z,26.13
2018-11-03T03:00:33.190Z,18.80
2018-11-03T03:03:06.296Z,28.27
2018-11-03T03:05:39.241Z,23.23
2018-11-03T03:08:12.227Z,19.50
2018-11-03T03:10:45.847Z,19.63
2018-11-03T03:13:19.134Z,16.27
2018-11-03T03:15:52.365Z,24.07
2018-11-03T03:18:25.633Z,13.60
2018-11-03T03:20:58.564Z,12.67
2018-11-03T03:23:32.211Z,21.67
2018-11-03T03:26:05.518Z,21.37
2018-11-03T03:28:38.974Z,12.13
2018-11-03T03:31:12.152Z,14.63
2018-11-03T03:33:45.261Z,18.20
2018-11-03T03:36:18.440Z,21.20
2018-11-03T03:38:51.581Z,20.33
2018-11-03T03:41:24.920Z,19.57
2018-11-03T03:43:59.585Z,22.50
2018-11-03T03:46:32.825Z,20.80
2018-11-03T03:49:05.959Z,25.30
2018-11-03T03:51:39.360Z,18.03
2018-11-03T03:54:12.436Z,19.53
2018-11-03T03:56:45.984Z,16.83
2018-11-03T03:59:18.963Z,20.33
2018-11-03T04:01:52.097Z,20.60
2018-11-03T04:04:25.307Z,19.57
2018-11-03T04:06:58.388Z,11.67
2018-11-03T04:09:31.684Z,13.70
2018-11-03T04:12:05.074Z,51.63
2018-11-03T04:14:38.453Z,50.53
2018-11-03T04:17:11.822Z,30.37
2018-11-03T04:19:45.017Z,21.90
2018-11-03T04:22:18.057Z,12.23
2018-11-03T04:24:50.881Z,17.53
2018-11-03T04:27:24.160Z,19.10
2018-11-03T04:29:57.268Z,14.03
2018-11-03T04:32:30.084Z,15.53
2018-11-03T04:35:03.782Z,18.87
2018-11-03T04:37:37.374Z,28.97
2018-11-03T04:40:12.435Z,30.30
2018-11-03T04:42:45.766Z,36.13
2018-11-03T04:45:18.616Z,35.63
2018-11-03T04:47:51.645Z,28.60
2018-11-03T04:50:24.928Z,44.67
2018-11-03T04:52:57.618Z,39.10
2018-11-03T04:55:31.059Z,28.63
2018-11-03T04:58:04.678Z,40.43
2018-11-03T05:00:37.581Z,28.00
2018-11-03T05:03:10.909Z,39.97
2018-11-03T05:05:43.737Z,28.67
2018-11-03T05:08:16.634Z,40.67
2018-11-03T05:10:49.953Z,47.80
2018-11-03T05:13:22.683Z,29.20
2018-11-03T05:15:55.784Z,27.57
2018-11-03T05:18:28.852Z,27.87
2018-11-03T05:21:01.587Z,18.70
2018-11-03T05:23:34.745Z,16.67
2018-11-03T05:26:08.147Z,20.43
2018-11-03T05:28:41.229Z,19.87
2018-11-03T05:31:14.500Z,23.30
2018-11-03T05:33:47.321Z,18.20
2018-11-03T05:36:20.354Z,19.57
2018-11-03T05:38:53.504Z,24.50
2018-11-03T05:41:26.903Z,19.30
2018-11-03T05:43:59.946Z,21.50
2018-11-03T05:46:32.711Z,18.37
2018-11-03T05:49:05.728Z,21.83
2018-11-03T05:51:38.907Z,22.10
2018-11-03T05:54:11.239Z,15.80
2018-11-03T05:56:44.560Z,24.03
2018-11-03T05:59:17.127Z,28.13
2018-11-03T06:01:50.277Z,18.20
2018-11-03T06:04:23.105Z,16.80
2018-11-03T06:06:56.098Z,25.73
2018-11-03T06:09:29.586Z,16.83
2018-11-03T06:12:02.920Z,22.00
2018-11-03T06:14:36.405Z,25.83
2018-11-03T06:17:09.519Z,30.13
2018-11-03T06:19:42.566Z,24.67
2018-11-03T06:22:15.722Z,48.43
2018-11-03T06:24:48.748Z,56.37
2018-11-03T06:27:21.581Z,36.07
2018-11-03T06:29:54.757Z,21.13
2018-11-03T06:32:27.872Z,23.70
2018-11-03T06:35:00.920Z,24.63
2018-11-03T06:37:33.799Z,23.07
2018-11-03T06:40:07.168Z,21.03
2018-11-03T06:42:40.421Z,24.37
2018-11-03T06:45:14.983Z,22.67
2018-11-03T06:47:48.603Z,23.27
2018-11-03T06:50:21.874Z,21.90
2018-11-03T06:52:54.729Z,40.83
2018-11-03T06:55:27.621Z,50.47
2018-11-03T06:58:00.914Z,42.90
2018-11-03T07:00:34.052Z,29.00
2018-11-03T07:03:07.197Z,21.83
2018-11-03T07:05:40.238Z,25.70
2018-11-03T07:08:13.514Z,27.97
2018-11-03T07:10:46.705Z,30.13
2018-11-03T07:13:19.943Z,28.40
2018-11-03T07:15:53.239Z,45.80
2018-11-03T07:18:25.993Z,34.27
2018-11-03T07:20:59.385Z,67.20
2018-11-03T07:23:32.300Z,77.37
2018-11-03T07:26:05.414Z,81.40
2018-11-03T07:28:38.630Z,82.67
2018-11-03T07:31:11.828Z,45.37
2018-11-03T07:33:44.766Z,36.57
2018-11-03T07:36:18.037Z,35.57
2018-11-03T07:38:51.083Z,39.80
2018-11-03T07:41:24.133Z,25.83
2018-11-03T07:43:57.126Z,22.23
2018-11-03T07:46:30.148Z,19.43
2018-11-03T07:49:03.231Z,15.50
2018-11-03T07:51:35.985Z,15.13
2018-11-03T07:54:08.961Z,18.50
2018-11-03T07:56:41.551Z,12.63
2018-11-03T07:59:14.231Z,15.40
2018-11-03T08:01:47.251Z,20.63
2018-11-03T08:04:20.123Z,10.77
2018-11-03T08:06:53.011Z,19.57
2018-11-03T08:09:25.341Z,21.47
2018-11-03T08:11:58.112Z,25.17
2018-11-03T08:14:30.940Z,23.37
2018-11-03T08:17:03.491Z,19.90
2018-11-03T08:19:36.327Z,15.07
2018-11-03T08:22:09.104Z,15.13
2018-11-03T08:24:41.592Z,20.77
2018-11-03T08:27:13.921Z,16.67
2018-11-03T08:29:46.327Z,18.50
2018-11-03T08:32:18.702Z,18.17
2018-11-03T08:34:51.278Z,16.80
2018-11-03T08:37:24.315Z,34.27
2018-11-03T08:39:57.213Z,19.40
2018-11-03T08:42:29.860Z,39.17
2018-11-03T08:45:03.079Z,27.97
2018-11-03T08:47:35.763Z,19.03
2018-11-03T08:50:09.176Z,25.03
2018-11-03T08:52:42.008Z,22.13
2018-11-03T08:55:15.305Z,19.17
2018-11-03T08:57:47.489Z,20.57
2018-11-03T09:00:20.377Z,19.13
2018-11-03T09:02:52.955Z,22.10
2018-11-03T09:05:25.372Z,26.70
2018-11-03T09:07:58.460Z,20.27
2018-11-03T09:10:31.539Z,26.33
2018-11-03T09:13:04.801Z,25.13
2018-11-03T09:15:38.857Z,25.17
2018-11-03T09:18:12.001Z,17.20
2018-11-03T09:20:44.652Z,13.03
2018-11-03T09:23:17.389Z,22.80
2018-11-03T09:25:50.470Z,14.57
2018-11-03T09:28:23.033Z,17.13
2018-11-03T09:37:45.493Z,17.07
2018-11-03T09:40:19.171Z,24.70
2018-11-03T09:42:52.383Z,20.30
2018-11-03T09:45:25.505Z,26.93
2018-11-03T09:47:58.298Z,16.93
2018-11-03T09:50:30.623Z,23.20
2018-11-03T09:53:03.538Z,26.73
2018-11-03T09:55:36.060Z,20.37
2018-11-03T09:58:09.126Z,22.97
2018-11-03T10:00:42.243Z,20.70
2018-11-03T10:03:14.777Z,23.70
2018-11-03T10:05:47.461Z,19.67
2018-11-03T10:08:20.477Z,23.90
2018-11-03T10:10:53.608Z,28.40
2018-11-03T10:13:26.189Z,21.17
2018-11-03T10:15:59.187Z,18.53
2018-11-03T10:18:31.977Z,18.23
2018-11-03T10:21:04.416Z,27.10
2018-11-03T10:23:37.504Z,16.63
2018-11-03T10:26:09.827Z,15.80
2018-11-03T10:28:42.782Z,17.87
2018-11-03T10:31:15.237Z,18.63
2018-11-03T10:33:47.756Z,21.13
2018-11-03T10:36:20.249Z,16.60
2018-11-03T10:38:53.438Z,18.17
2018-11-03T10:41:27.002Z,22.23
2018-11-03T10:43:59.798Z,25.87
2018-11-03T10:46:32.641Z,21.57
2018-11-03T10:49:05.059Z,22.80
2018-11-03T10:51:37.681Z,23.63
2018-11-03T10:54:10.368Z,26.27
2018-11-03T10:56:42.778Z,22.17
2018-11-03T10:59:16.143Z,16.70
2018-11-03T11:01:53.288Z,21.53
2018-11-03T11:04:30.181Z,17.40
2018-11-03T11:07:07.338Z,18.33
2018-11-03T11:09:44.272Z,18.93
2018-11-03T11:12:21.290Z,24.03
2018-11-03T11:14:54.145Z,23.20
2018-11-03T11:17:26.572Z,29.13
2018-11-03T11:19:59.077Z,26.40
2018-11-03T11:22:31.165Z,22.40
2018-11-03T11:25:04.234Z,33.20
2018-11-03T11:27:37.163Z,25.03
2018-11-03T11:30:11.875Z,22.77
2018-11-03T11:32:45.237Z,23.80
2018-11-03T11:35:17.779Z,20.00
2018-11-03T11:37:50.548Z,25.53
2018-11-03T11:40:22.936Z,27.10
2018-11-03T11:42:55.716Z,28.30
2018-11-03T11:45:28.200Z,24.13
2018-11-03T11:48:00.626Z,24.93
2018-11-03T11:50:32.946Z,17.20
2018-11-03T11:53:05.310Z,33.13
2018-11-03T11:55:37.882Z,32.23
2018-11-03T11:58:10.807Z,28.67
2018-11-03T12:00:43.846Z,21.83
2018-11-03T12:03:16.459Z,25.00
2018-11-03T12:05:49.224Z,19.97
2018-11-03T12:08:21.897Z,20.33
2018-11-03T12:10:54.772Z,21.70
2018-11-03T12:13:27.208Z,24.33
2018-11-03T12:15:59.595Z,16.77
2018-11-03T12:18:32.319Z,20.23
2018-11-03T12:21:05.395Z,20.20
2018-11-03T12:23:38.255Z,20.13
2018-11-03T12:26:11.383Z,19.37
2018-11-03T12:28:43.886Z,14.23
2018-11-03T12:31:16.308Z,21.40
2018-11-03T12:33:49.060Z,19.77
2018-11-03T12:36:21.456Z,16.93
2018-11-03T12:38:54.157Z,27.63
2018-11-03T12:41:26.764Z,27.00
2018-11-03T12:43:59.372Z,22.93
2018-11-03T12:46:31.863Z,29.47
2018-11-03T12:49:04.720Z,22.47
2018-11-03T12:51:37.125Z,16.43
2018-11-03T12:54:11.098Z,20.73
2018-11-03T12:56:44.335Z,27.47
2018-11-03T12:59:16.861Z,26.73
2018-11-03T13:01:50.277Z,20.90
2018-11-03T13:04:22.856Z,21.00
2018-11-03T13:06:55.678Z,14.00
2018-11-03T13:09:28.027Z,16.93
2018-11-03T13:12:01.043Z,18.90
2018-11-03T13:14:33.753Z,11.60
2018-11-03T13:17:06.037Z,29.40
2018-11-03T13:19:38.576Z,18.50
2018-11-03T13:22:11.284Z,12.93
2018-11-03T13:24:43.573Z,19.37
2018-11-03T13:27:15.944Z,26.33
2018-11-03T13:29:49.045Z,12.10
2018-11-03T13:32:21.737Z,22.67
2018-11-03T13:34:54.671Z,20.37
2018-11-03T13:37:27.224Z,19.00
2018-11-03T13:40:00.379Z,20.00
2018-11-03T13:42:33.032Z,21.43
2018-11-03T13:45:05.897Z,20.37
2018-11-03T13:47:38.800Z,12.43
2018-11-03T13:50:14.918Z,19.03
2018-11-03T13:52:48.576Z,20.03
2018-11-03T13:55:21.527Z,18.00
2018-11-03T13:57:54.030Z,26.30
2018-11-03T14:00:26.341Z,17.70
2018-11-03T14:02:58.435Z,17.53
2018-11-03T14:05:31.851Z,17.20
2018-11-03T14:08:04.429Z,15.30
2018-11-03T14:10:36.636Z,27.77
2018-11-03T14:13:09.192Z,23.97
2018-11-03T14:15:41.551Z,17.13
2018-11-03T14:18:14.137Z,23.77
2018-11-03T14:20:46.406Z,14.30
2018-11-03T14:23:18.770Z,20.27
2018-11-03T14:25:51.471Z,13.80
2018-11-03T14:28:24.101Z,17.30
2018-11-03T14:30:56.830Z,16.13
2018-11-03T14:33:29.314Z,22.87
2018-11-03T14:36:01.504Z,12.00
2018-11-03T14:38:34.373Z,15.40
2018-11-03T14:41:07.331Z,16.73
2018-11-03T14:43:39.468Z,22.87
2018-11-03T14:46:12.500Z,11.60
2018-11-03T14:48:44.666Z,14.80
2018-11-03T14:51:17.211Z,12.07
2018-11-03T14:53:50.073Z,12.17
2018-11-03T14:56:22.730Z,12.10
2018-11-03T14:58:56.023Z,18.77
2018-11-03T15:01:28.969Z,12.90
2018-11-03T15:04:01.237Z,21.60
2018-11-03T15:06:34.782Z,16.10
2018-11-03T15:09:09.321Z,15.07
2018-11-03T15:11:41.699Z,20.73
2018-11-03T15:14:14.146Z,15.23
2018-11-03T15:16:46.639Z,15.07
2018-11-03T15:19:19.219Z,16.83
2018-11-03T15:21:52.117Z,15.57
2018-11-03T15:24:24.724Z,13.47
2018-11-03T15:26:57.161Z,19.73
2018-11-03T15:29:29.644Z,12.77
2018-11-03T15:32:02.521Z,15.87
2018-11-03T15:34:36.919Z,13.80
2018-11-03T15:37:09.368Z,20.47
2018-11-03T15:39:41.758Z,21.43
2018-11-03T15:42:14.233Z,18.23
2018-11-03T15:44:46.724Z,21.83
2018-11-03T15:47:19.081Z,14.90
2018-11-03T15:49:51.537Z,13.07
2018-11-03T15:52:24.570Z,20.80
2018-11-03T15:54:57.007Z,13.17
2018-11-03T15:57:29.503Z,17.33
2018-11-03T16:00:02.316Z,12.80
2018-11-03T16:02:36.376Z,13.83
2018-11-03T16:05:08.831Z,9.40
2018-11-03T16:07:41.123Z,13.00
2018-11-03T16:12:50.733Z,20.50
2018-11-03T16:15:24.517Z,14.50
2018-11-03T16:17:57.390Z,12.00
2018-11-03T16:20:30.166Z,14.80
2018-11-03T16:23:02.949Z,13.30
2018-11-03T16:25:36.512Z,12.10
2018-11-03T16:28:08.591Z,16.97
2018-11-03T16:30:40.906Z,16.97
2018-11-03T16:33:13.298Z,21.97
2018-11-03T16:35:45.630Z,20.33
2018-11-03T16:38:18.030Z,17.93
2018-11-03T16:40:50.395Z,15.83
2018-11-03T16:43:22.941Z,13.63
2018-11-03T16:45:55.441Z,13.53
2018-11-03T16:48:28.067Z,17.30
2018-11-03T16:51:00.750Z,17.30
2018-11-03T16:53:32.928Z,12.20
2018-11-03T16:56:05.823Z,13.20
2018-11-03T16:58:38.337Z,11.37
2018-11-03T17:01:10.742Z,16.33
2018-11-03T17:03:43.519Z,15.27
2018-11-03T17:06:16.146Z,11.27
2018-11-03T17:08:48.455Z,12.00
2018-11-03T17:11:20.925Z,15.43
2018-11-03T17:13:53.866Z,15.93
2018-11-03T17:16:26.644Z,12.27
2018-11-03T17:18:59.064Z,12.13
2018-11-03T17:21:32.266Z,16.90
2018-11-03T17:24:04.744Z,9.67
2018-11-03T17:26:37.412Z,14.87
2018-11-03T17:29:09.967Z,12.10
2018-11-03T17:31:43.035Z,11.93
2018-11-03T17:34:15.595Z,12.67
2018-11-03T17:36:48.119Z,12.23
2018-11-03T17:39:20.710Z,13.03
2018-11-03T17:41:53.486Z,20.13
2018-11-03T17:44:26.448Z,16.20
2018-11-03T17:46:58.853Z,8.93
2018-11-03T17:49:31.525Z,19.23
2018-11-03T17:52:03.869Z,10.57
2018-11-03T17:54:36.825Z,11.80
2018-11-03T17:57:09.527Z,15.47
2018-11-03T17:59:42.973Z,11.70
2018-11-03T18:02:16.068Z,11.13
2018-11-03T18:04:48.044Z,13.73
2018-11-03T18:07:20.785Z,9.70
2018-11-03T18:09:53.346Z,13.97
2018-11-03T18:12:26.125Z,14.87
2018-11-03T18:14:58.874Z,9.50
2018-11-03T18:17:32.699Z,13.83
2018-11-03T18:20:05.453Z,9.70
2018-11-03T18:22:38.462Z,12.47
2018-11-03T18:25:11.537Z,11.77
2018-11-03T18:27:44.013Z,11.80
2018-11-03T18:30:16.454Z,8.57
2018-11-03T18:32:48.677Z,9.13
2018-11-03T18:35:21.103Z,12.33
2018-11-03T18:37:54.034Z,17.67
2018-11-03T18:40:27.492Z,14.17
2018-11-03T18:43:00.086Z,8.70
2018-11-03T18:45:32.617Z,13.00
2018-11-03T18:48:04.899Z,13.47
2018-11-03T18:50:39.073Z,13.37
2018-11-03T18:53:11.556Z,14.90
2018-11-03T18:55:44.585Z,15.90
2018-11-03T18:58:17.210Z,15.10
2018-11-03T19:00:49.774Z,12.27
2018-11-03T19:03:22.308Z,13.17
2018-11-03T19:05:55.724Z,15.03
2018-11-03T19:08:28.778Z,15.00
2018-11-03T19:11:01.310Z,8.80
2018-11-03T19:13:34.038Z,13.27
2018-11-03T19:16:06.223Z,10.63
2018-11-03T19:18:38.744Z,8.83
2018-11-03T19:21:11.523Z,12.10
2018-11-03T19:23:44.272Z,15.20
2018-11-03T19:26:16.974Z,11.10
2018-11-03T19:28:53.206Z,11.40
2018-11-03T19:31:26.137Z,13.03
2018-11-03T19:33:58.669Z,12.63
2018-11-03T19:36:31.492Z,12.90
2018-11-03T19:39:04.232Z,12.37
2018-11-03T19:41:37.194Z,17.57
2018-11-03T19:44:10.323Z,16.13
2018-11-03T19:46:43.057Z,14.10
2018-11-03T19:49:15.634Z,13.60
2018-11-03T19:51:48.080Z,12.77
2018-11-03T19:54:21.301Z,14.60
2018-11-03T19:56:54.623Z,9.90
2018-11-03T19:59:26.933Z,10.10
2018-11-03T20:01:59.212Z,9.23
2018-11-03T20:04:32.352Z,10.83
2018-11-03T20:07:04.854Z,14.00
2018-11-03T20:09:37.270Z,13.67
2018-11-03T20:12:09.954Z,11.97
2018-11-03T20:14:42.412Z,11.00
2018-11-03T20:17:14.687Z,12.77
2018-11-03T20:19:48.259Z,13.70
2018-11-03T20:22:20.657Z,11.90
2018-11-03T20:24:52.793Z,8.73
2018-11-03T20:27:25.625Z,11.10
2018-11-03T20:29:58.760Z,13.43
2018-11-03T20:32:31.401Z,10.43
2018-11-03T20:35:03.831Z,9.20
2018-11-03T20:37:36.306Z,7.83
2018-11-03T20:40:09.558Z,10.13
2018-11-03T20:42:41.896Z,13.53
2018-11-03T20:45:14.542Z,13.73
2018-11-03T20:47:48.126Z,10.73
2018-11-03T20:50:21.949Z,12.30
2018-11-03T20:52:55.879Z,9.90
2018-11-03T20:55:29.639Z,13.00
2018-11-03T20:58:06.426Z,10.97
2018-11-03T21:00:44.164Z,11.60
2018-11-03T21:03:18.836Z,11.60
2018-11-03T21:05:51.513Z,7.40
2018-11-03T21:08:23.943Z,12.80
2018-11-03T21:10:57.867Z,10.97
2018-11-03T21:13:32.635Z,10.43
2018-11-03T21:16:05.249Z,8.53
2018-11-03T21:18:40.132Z,6.60
2018-11-03T21:21:14.080Z,10.10
2018-11-03T21:23:48.129Z,9.60
2018-11-03T21:26:22.260Z,11.30
2018-11-03T21:28:57.395Z,10.23
2018-11-03T21:31:31.105Z,13.50
2018-11-03T21:34:03.948Z,10.47
2018-11-03T21:36:37.426Z,10.90
2018-11-03T21:39:12.564Z,14.20
2018-11-03T21:41:45.842Z,11.23
2018-11-03T21:44:19.650Z,9.17
2018-11-03T21:46:55.007Z,11.63
2018-11-03T21:49:28.962Z,11.37
2018-11-03T21:52:01.942Z,11.57
2018-11-03T21:54:35.056Z,9.60
2018-11-03T21:57:07.372Z,9.67
2018-11-03T21:59:40.297Z,11.40
2018-11-03T22:02:13.991Z,13.40
2018-11-03T22:04:48.247Z,12.00
2018-11-03T22:07:21.806Z,12.90
2018-11-03T22:09:55.416Z,13.30
2018-11-03T22:12:28.184Z,14.57
2018-11-03T22:15:02.014Z,14.90
2018-11-03T22:17:34.941Z,11.43
2018-11-03T22:20:07.766Z,14.37
2018-11-03T22:22:41.218Z,16.43
2018-11-03T22:25:14.012Z,11.97
2018-11-03T22:27:46.626Z,11.53
2018-11-03T22:30:18.817Z,13.93
2018-11-03T22:32:51.575Z,12.60
2018-11-03T22:35:24.162Z,12.17
2018-11-03T22:37:56.659Z,20.63
2018-11-03T22:40:29.082Z,13.43
2018-11-03T22:43:01.605Z,8.00
2018-11-03T22:45:34.546Z,13.20
2018-11-03T22:48:06.991Z,13.60
2018-11-03T22:50:39.745Z,15.80
2018-11-03T22:53:12.509Z,26.13
2018-11-03T22:55:44.796Z,22.07
2018-11-03T22:58:17.045Z,18.73
2018-11-03T23:00:54.061Z,17.97
2018-11-03T23:03:27.344Z,17.73
2018-11-03T23:05:59.705Z,19.07
2018-11-03T23:08:32.399Z,19.23
2018-11-03T23:11:04.898Z,16.67
2018-11-03T23:13:37.675Z,23.33
2018-11-03T23:16:10.374Z,23.67
2018-11-03T23:18:43.473Z,19.93
2018-11-03T23:21:16.696Z,13.40
2018-11-03T23:23:49.268Z,18.43
2018-11-03T23:26:23.247Z,13.77
2018-11-03T23:28:57.004Z,20.27
2018-11-03T23:31:29.467Z,16.77
2018-11-03T23:34:02.103Z,13.40
2018-11-03T23:36:34.846Z,15.63
2018-11-03T23:39:09.269Z,14.03
2018-11-03T23:41:41.982Z,16.00
2018-11-03T23:44:15.345Z,16.00
2018-11-03T23:46:48.053Z,15.50
2018-11-03T23:49:20.815Z,17.33
2018-11-03T23:51:53.012Z,17.30
2018-11-03T23:54:25.601Z,13.80
2018-11-03T23:56:58.016Z,14.20
2018-11-03T23:59:30.557Z,17.83
